createdAt,value
2023-03-19T00:09:13.974Z,0.51
2023-03-19T00:21:16.613Z,0.46
2023-03-19T00:33:15.048Z,0.23
2023-03-19T00:45:15.328Z,0.56
2023-03-19T00:57:19.986Z,0.35
2023-03-19T01:09:16.190Z,0.39
2023-03-19T01:21:16.642Z,0.40
2023-03-19T01:33:17.143Z,0.34
2023-03-19T01:45:17.561Z,0.97
2023-03-19T01:57:17.995Z,0.44
2023-03-19T02:21:18.918Z,0.16
2023-03-19T02:33:19.366Z,0.10
2023-03-19T02:45:19.832Z,0.18
2023-03-19T02:57:20.271Z,0.07
2023-03-19T03:09:20.776Z,0.27
2023-03-19T03:21:21.157Z,0.08
2023-03-19T03:33:21.614Z,0.26
2023-03-19T03:45:22.099Z,0.00
2023-03-19T03:57:22.561Z,0.04
2023-03-19T04:09:25.192Z,0.10
2023-03-19T04:21:23.424Z,0.00
2023-03-19T04:33:23.908Z,0.02
2023-03-19T04:45:24.383Z,0.00
2023-03-19T04:57:24.801Z,0.00
2023-03-19T05:09:25.247Z,0.32
2023-03-19T05:21:25.696Z,0.36
2023-03-19T05:33:26.141Z,0.27
2023-03-19T05:45:26.541Z,0.14
2023-03-19T05:57:27.221Z,0.39
2023-03-19T06:09:27.506Z,0.00
2023-03-19T06:21:27.977Z,0.52
2023-03-19T06:33:28.425Z,0.03
2023-03-19T06:45:28.994Z,0.27
2023-03-19T06:57:29.280Z,0.00
2023-03-19T07:09:29.795Z,0.15
2023-03-19T07:21:30.218Z,0.19
2023-03-19T07:33:32.875Z,0.74
2023-03-19T07:45:31.132Z,0.61
2023-03-19T07:57:35.851Z,0.28
2023-03-19T08:09:32.053Z,0.22
2023-03-19T08:21:32.429Z,0.66
2023-03-19T08:33:35.627Z,0.60
2023-03-19T08:45:33.701Z,0.96
2023-03-19T08:57:33.932Z,0.92
2023-03-19T09:09:34.411Z,1.30
2023-03-19T09:21:34.747Z,1.21
2023-03-19T09:33:35.204Z,0.97
2023-03-19T09:45:35.838Z,1.20
2023-03-19T09:57:36.094Z,1.37
2023-03-19T10:09:36.592Z,2.41
2023-03-19T10:21:37.212Z,1.93
2023-03-19T10:33:39.673Z,1.90
2023-03-19T10:45:39.161Z,1.83
2023-03-19T10:57:41.167Z,1.76
2023-03-19T11:09:38.874Z,2.12
2023-03-19T11:21:41.565Z,1.74
2023-03-19T11:33:39.822Z,1.87
2023-03-19T11:45:42.103Z,1.60
2023-03-19T11:57:42.866Z,1.91
2023-03-19T12:09:41.079Z,1.67
2023-03-19T12:21:44.310Z,2.71
2023-03-19T12:33:42.050Z,1.71
2023-03-19T12:45:42.500Z,1.90
2023-03-19T12:57:42.943Z,1.86
2023-03-19T13:09:43.392Z,2.20
2023-03-19T13:21:43.841Z,1.39
2023-03-19T13:33:44.307Z,1.80
2023-03-19T13:45:47.453Z,1.21
2023-03-19T13:57:45.305Z,2.37
2023-03-19T14:09:45.657Z,1.70
2023-03-19T14:21:47.173Z,1.66
2023-03-19T14:33:46.640Z,1.28
2023-03-19T14:45:47.080Z,1.55
2023-03-19T14:57:47.493Z,1.55
2023-03-19T15:09:50.649Z,1.61
2023-03-19T15:21:48.415Z,0.95
2023-03-19T15:33:49.041Z,0.75
2023-03-19T15:45:49.347Z,0.67
2023-03-19T15:57:49.813Z,0.12
2023-03-19T16:09:50.234Z,0.25
2023-03-19T16:21:52.877Z,0.14
2023-03-19T16:33:51.165Z,0.29
2023-03-19T16:45:51.605Z,0.51
2023-03-19T16:57:52.024Z,0.00
2023-03-19T17:09:52.502Z,0.03
2023-03-19T17:21:52.958Z,0.00
2023-03-19T17:33:55.668Z,0.01
2023-03-19T17:45:53.833Z,0.00
2023-03-19T17:57:56.029Z,0.00
2023-03-19T18:09:57.505Z,0.00
2023-03-19T18:21:55.249Z,0.00
2023-03-19T18:34:02.894Z,0.01
2023-03-19T18:45:59.883Z,0.00
2023-03-19T18:57:56.660Z,0.01
2023-03-19T19:09:59.258Z,0.00
2023-03-19T19:21:57.540Z,0.00
2023-03-19T19:33:57.930Z,0.00
2023-03-19T19:45:58.419Z,0.00
2023-03-19T19:58:01.555Z,0.13
2023-03-19T20:10:02.091Z,0.00
2023-03-19T20:21:59.761Z,0.00
2023-03-19T20:34:00.246Z,0.02
2023-03-19T20:46:00.695Z,0.25
2023-03-19T20:58:01.081Z,0.00
2023-03-19T21:10:01.716Z,0.00
2023-03-19T21:22:02.030Z,0.00
2023-03-19T21:34:02.506Z,0.00
2023-03-19T21:46:22.777Z,0.01
2023-03-19T21:58:03.548Z,0.06
2023-03-19T22:10:03.808Z,0.00
2023-03-19T22:22:04.310Z,0.00
2023-03-19T22:34:04.701Z,0.00
2023-03-19T22:46:05.185Z,0.00
2023-03-19T22:58:05.605Z,0.24
2023-03-19T23:10:06.096Z,0.11
2023-03-19T23:22:09.249Z,0.41
2023-03-19T23:34:11.208Z,0.00
2023-03-19T23:46:09.733Z,0.00
2023-03-19T23:58:07.904Z,0.00
